createdAt,value
2022-11-05T00:19:19.593Z,44.53
2022-11-05T00:22:08.432Z,42.88
2022-11-05T00:25:08.454Z,40.38
2022-11-05T00:27:40.775Z,39.88
2022-11-05T00:30:13.974Z,40.75
2022-11-05T00:35:15.113Z,40.42
2022-11-05T00:38:37.573Z,46.35
2022-11-05T00:41:32.221Z,41.05
2022-11-05T00:44:20.990Z,36.67
2022-11-05T00:47:11.293Z,38.70
2022-11-05T00:49:38.462Z,41.33
2022-11-05T00:52:25.244Z,38.78
2022-11-05T00:55:43.420Z,40.80
2022-11-05T00:58:18.054Z,37.17
2022-11-05T01:00:51.354Z,38.60
2022-11-05T01:03:24.152Z,36.50
2022-11-05T01:05:54.813Z,38.63
2022-11-05T01:08:27.488Z,37.13
2022-11-05T01:11:04.021Z,37.42
2022-11-05T01:13:33.165Z,34.08
2022-11-05T01:16:09.879Z,37.50
2022-11-05T01:18:40.578Z,30.75
2022-11-05T01:21:17.445Z,31.92
2022-11-05T01:23:48.447Z,33.75
2022-11-05T01:26:19.518Z,30.58
2022-11-05T01:28:53.915Z,30.75
2022-11-05T01:31:26.006Z,32.63
2022-11-05T01:33:54.931Z,31.27
2022-11-05T01:36:24.002Z,28.23
2022-11-05T01:38:56.373Z,31.42
2022-11-05T01:41:26.925Z,33.55
2022-11-05T01:44:00.350Z,28.63
2022-11-05T01:46:38.845Z,29.77
2022-11-05T01:49:14.102Z,28.88
2022-11-05T01:51:45.906Z,31.15
2022-11-05T01:54:20.229Z,29.20
2022-11-05T01:56:55.061Z,31.33
2022-11-05T01:59:27.554Z,23.58
2022-11-05T02:01:57.599Z,22.70
2022-11-05T02:04:35.694Z,24.98
2022-11-05T02:07:06.608Z,24.10
2022-11-05T02:09:46.724Z,22.23
2022-11-05T02:12:16.833Z,21.75
2022-11-05T02:14:49.638Z,20.55
2022-11-05T02:17:35.834Z,20.25
2022-11-05T02:20:34.835Z,18.15
2022-11-05T02:23:39.843Z,20.83
2022-11-05T02:26:56.244Z,20.50
2022-11-05T02:30:10.906Z,18.27
2022-11-05T02:33:08.280Z,19.83
2022-11-05T02:36:00.293Z,20.08
2022-11-05T02:38:40.512Z,23.85
2022-11-05T02:41:17.822Z,23.15
2022-11-05T02:43:55.890Z,23.40
2022-11-05T02:46:33.097Z,24.95
2022-11-05T02:49:18.002Z,25.23
2022-11-05T02:52:00.513Z,25.25
2022-11-05T02:54:39.544Z,25.95
2022-11-05T02:57:13.420Z,25.38
2022-11-05T02:59:42.506Z,26.05
2022-11-05T03:02:12.871Z,29.70
2022-11-05T03:04:53.456Z,31.05
2022-11-05T03:07:33.949Z,28.38
2022-11-05T03:10:27.260Z,30.60
2022-11-05T03:13:16.063Z,30.00
2022-11-05T03:16:06.323Z,30.40
2022-11-05T03:18:45.813Z,30.90
2022-11-05T03:21:23.134Z,30.77
2022-11-05T03:24:04.704Z,31.85
2022-11-05T03:26:39.598Z,26.40
2022-11-05T03:29:18.097Z,30.63
2022-11-05T03:31:54.885Z,30.42
2022-11-05T03:34:29.747Z,27.92
2022-11-05T03:37:03.679Z,30.67
2022-11-05T03:39:38.665Z,28.63
2022-11-05T03:42:12.569Z,31.77
2022-11-05T03:44:45.962Z,30.65
2022-11-05T03:47:21.354Z,29.73
2022-11-05T03:49:57.781Z,33.20
2022-11-05T03:52:47.619Z,33.67
2022-11-05T03:55:34.456Z,34.65
2022-11-05T03:58:17.742Z,37.10
2022-11-05T04:04:07.247Z,38.20
2022-11-05T04:10:27.437Z,22.08
2022-11-05T04:13:18.982Z,22.60
2022-11-05T04:16:11.403Z,27.20
2022-11-05T04:18:56.640Z,23.60
2022-11-05T04:24:36.800Z,19.42
2022-11-05T04:27:18.970Z,20.25
2022-11-05T04:30:22.662Z,15.77
2022-11-05T04:36:18.329Z,16.38
2022-11-05T04:39:19.483Z,18.48
2022-11-05T04:42:06.313Z,14.43
2022-11-05T04:44:43.490Z,16.38
2022-11-05T04:47:26.687Z,14.68
2022-11-05T04:50:13.533Z,17.73
2022-11-05T05:06:12.813Z,11.63
2022-11-05T05:08:53.263Z,12.55
2022-11-05T05:11:27.752Z,13.65
2022-11-05T05:14:14.608Z,15.60
2022-11-05T05:17:07.968Z,15.57
2022-11-05T05:19:55.678Z,16.73
2022-11-05T05:22:27.943Z,15.68
2022-11-05T05:28:09.494Z,16.88
2022-11-05T05:30:40.877Z,19.92
2022-11-05T05:33:12.905Z,16.77
2022-11-05T05:35:50.752Z,19.17
2022-11-05T05:44:29.353Z,17.35
2022-11-05T05:47:12.813Z,19.48
2022-11-05T05:49:45.685Z,25.42
2022-11-05T05:52:32.771Z,16.60
2022-11-05T05:55:14.135Z,14.87
2022-11-05T05:57:50.530Z,15.95
2022-11-05T06:00:22.833Z,20.08
2022-11-05T06:03:16.455Z,18.38
2022-11-05T06:05:47.080Z,20.08
2022-11-05T06:08:17.448Z,18.20
2022-11-05T06:10:53.251Z,14.82
2022-11-05T06:13:24.591Z,18.58
2022-11-05T06:15:53.631Z,17.17
2022-11-05T06:18:26.402Z,15.10
2022-11-05T06:20:56.199Z,20.13
2022-11-05T06:23:26.492Z,27.48
2022-11-05T06:25:57.958Z,25.73
2022-11-05T06:28:26.627Z,23.63
2022-11-05T06:30:57.518Z,24.15
2022-11-05T06:33:26.309Z,33.10
2022-11-05T06:35:55.052Z,27.52
2022-11-05T06:38:25.630Z,34.67
2022-11-05T06:40:55.024Z,29.33
2022-11-05T06:43:24.570Z,31.70
2022-11-05T06:45:52.847Z,32.85
2022-11-05T06:48:21.323Z,32.13
2022-11-05T06:50:49.620Z,42.53
2022-11-05T06:53:20.329Z,31.65
2022-11-05T06:55:52.417Z,34.80
2022-11-05T06:58:21.904Z,43.88
2022-11-05T07:00:51.472Z,38.17
2022-11-05T07:03:20.201Z,37.53
2022-11-05T07:05:50.381Z,35.55
2022-11-05T07:08:20.300Z,32.08
2022-11-05T07:13:22.004Z,46.13
2022-11-05T07:15:51.043Z,41.47
2022-11-05T07:18:19.490Z,37.17
2022-11-05T07:20:49.733Z,43.63
2022-11-05T07:23:20.832Z,48.90
2022-11-05T07:25:53.266Z,47.20
2022-11-05T07:28:21.968Z,50.95
2022-11-05T07:30:50.713Z,47.40
2022-11-05T07:33:26.021Z,48.20
2022-11-05T07:35:57.801Z,38.40
2022-11-05T07:38:30.704Z,43.03
2022-11-05T07:41:02.788Z,50.78
2022-11-05T07:43:32.343Z,45.85
2022-11-05T07:46:01.579Z,41.67
2022-11-05T07:48:33.231Z,45.17
2022-11-05T07:51:02.407Z,40.47
2022-11-05T07:53:33.837Z,51.17
2022-11-05T07:56:04.727Z,41.10
2022-11-05T07:58:35.288Z,34.60
2022-11-05T08:01:04.444Z,34.75
2022-11-05T08:06:02.512Z,42.47
2022-11-05T08:08:31.927Z,33.90
2022-11-05T08:11:07.234Z,41.53
2022-11-05T08:13:42.502Z,40.38
2022-11-05T08:16:16.409Z,32.22
2022-11-05T08:18:51.148Z,33.95
2022-11-05T08:21:29.135Z,33.25
2022-11-05T08:24:03.296Z,39.63
2022-11-05T08:29:54.415Z,39.15
2022-11-05T08:32:27.036Z,37.83
2022-11-05T08:35:20.520Z,35.65
2022-11-05T08:38:05.980Z,34.33
2022-11-05T08:41:04.122Z,39.92
2022-11-05T08:43:39.448Z,33.42
2022-11-05T08:46:28.944Z,30.98
2022-11-05T08:49:16.733Z,31.08
2022-11-05T08:51:58.797Z,27.45
2022-11-05T09:07:53.183Z,23.42
2022-11-05T10:24:23.988Z,29.98
2022-11-05T10:27:04.466Z,30.02
2022-11-05T10:30:14.599Z,23.05
2022-11-05T10:32:57.185Z,32.65
2022-11-05T10:35:48.396Z,38.03
2022-11-05T10:38:48.064Z,36.80
2022-11-05T10:41:51.162Z,35.85
2022-11-05T10:44:37.688Z,48.88
2022-11-05T10:47:47.540Z,68.78
2022-11-05T11:18:39.878Z,30.05
2022-11-05T11:29:58.557Z,28.88
2022-11-05T11:32:39.163Z,20.98
2022-11-05T11:38:29.096Z,19.98
2022-11-05T11:44:26.204Z,15.40
2022-11-05T11:47:29.345Z,21.80
2022-11-05T11:50:20.730Z,22.80
2022-11-05T11:52:53.527Z,20.05
2022-11-05T11:56:04.303Z,19.95
2022-11-05T11:59:01.008Z,15.77
2022-11-05T12:05:48.000Z,14.88
2022-11-05T12:12:42.588Z,30.02
2022-11-05T12:15:44.742Z,22.88
2022-11-05T12:18:33.388Z,21.08
2022-11-05T12:21:41.115Z,21.75
2022-11-05T12:27:51.574Z,26.27
2022-11-05T12:30:46.068Z,23.40
2022-11-05T12:33:34.971Z,20.10
2022-11-05T12:36:31.424Z,22.23
2022-11-05T12:39:34.464Z,21.25
2022-11-05T12:42:37.105Z,19.40
2022-11-05T14:28:30.613Z,17.38
2022-11-05T14:31:47.311Z,17.95
2022-11-05T14:38:14.063Z,26.05
2022-11-05T14:40:52.305Z,25.98
2022-11-05T14:43:41.998Z,22.90
2022-11-05T14:46:22.432Z,18.33
2022-11-05T14:52:58.143Z,12.93
2022-11-05T14:55:42.919Z,24.60
2022-11-05T14:58:59.370Z,29.95
2022-11-05T15:06:01.158Z,20.33
2022-11-05T15:08:43.747Z,18.35
2022-11-05T15:11:25.544Z,13.00
2022-11-05T15:14:33.109Z,16.33
2022-11-05T15:25:28.909Z,30.08
2022-11-05T15:47:30.477Z,13.00
2022-11-05T15:50:21.457Z,17.02
2022-11-05T15:56:23.281Z,10.68
2022-11-05T15:59:24.916Z,13.90
2022-11-05T16:02:37.826Z,15.70
2022-11-05T16:11:32.185Z,9.30
2022-11-05T16:14:21.626Z,9.48
2022-11-05T16:17:20.738Z,9.15
2022-11-05T16:20:23.594Z,14.00
2022-11-05T16:23:24.820Z,10.73
2022-11-05T16:25:58.929Z,12.48
2022-11-05T16:28:47.020Z,15.05
2022-11-05T16:31:27.561Z,11.75
2022-11-05T16:36:52.129Z,19.63
2022-11-05T16:39:33.394Z,21.88
2022-11-05T16:42:02.505Z,11.07
2022-11-05T16:44:39.160Z,14.35
2022-11-05T16:48:00.353Z,6.85
2022-11-05T16:54:42.610Z,16.48
2022-11-05T16:57:26.998Z,17.38
2022-11-05T17:08:19.499Z,17.42
2022-11-05T17:11:02.251Z,15.40
2022-11-05T17:13:32.231Z,33.97
2022-11-05T17:16:17.128Z,24.05
2022-11-05T17:19:04.111Z,17.90
2022-11-05T17:21:45.458Z,21.85
2022-11-05T17:24:38.202Z,26.27
2022-11-05T17:27:11.784Z,28.73
2022-11-05T17:29:43.402Z,31.75
2022-11-05T17:32:16.953Z,28.75
2022-11-05T17:34:52.802Z,27.35
2022-11-05T17:37:31.335Z,26.98
2022-11-05T17:40:10.921Z,31.23
2022-11-05T17:42:57.347Z,24.65
2022-11-05T17:45:36.216Z,26.80
2022-11-05T17:48:10.893Z,39.20
2022-11-05T17:50:44.153Z,37.65
2022-11-05T17:53:27.188Z,54.97
2022-11-05T17:56:01.291Z,63.15
2022-11-05T17:58:48.144Z,82.70
2022-11-05T18:01:32.033Z,72.22
2022-11-05T18:04:10.956Z,74.63
2022-11-05T18:10:21.575Z,57.65
2022-11-05T18:13:05.003Z,65.82
2022-11-05T18:15:52.663Z,53.90
2022-11-05T18:18:37.323Z,54.17
2022-11-05T18:21:17.976Z,36.25
2022-11-05T18:24:00.272Z,37.22
2022-11-05T18:26:47.487Z,36.65
2022-11-05T18:29:21.160Z,42.50
2022-11-05T18:32:01.345Z,41.28
2022-11-05T18:34:42.121Z,52.03
2022-11-05T18:37:24.429Z,63.38
2022-11-05T18:40:10.371Z,64.25
2022-11-05T18:42:50.320Z,51.22
2022-11-05T18:45:29.902Z,45.58
2022-11-05T18:48:06.801Z,37.50
2022-11-05T18:50:40.402Z,37.45
2022-11-05T18:53:43.220Z,39.87
2022-11-05T18:56:28.010Z,41.70
2022-11-05T18:59:21.935Z,44.20
2022-11-05T19:02:10.743Z,46.72
2022-11-05T19:05:30.100Z,41.30
2022-11-05T19:10:50.322Z,37.65
2022-11-05T19:13:26.820Z,37.90
2022-11-05T19:16:05.801Z,37.95
2022-11-05T19:18:46.861Z,26.88
2022-11-05T19:21:23.473Z,30.02
2022-11-05T19:26:44.639Z,33.05
2022-11-05T19:29:19.838Z,31.88
2022-11-05T19:31:53.559Z,37.05
2022-11-05T19:34:31.600Z,43.83
2022-11-05T19:37:01.122Z,65.78
2022-11-05T19:39:33.223Z,76.07
2022-11-05T19:42:04.063Z,62.33
2022-11-05T19:44:37.602Z,54.00
2022-11-05T19:47:07.389Z,151.82
2022-11-05T19:49:39.464Z,138.60
2022-11-05T19:52:10.037Z,134.30
2022-11-05T19:54:40.513Z,210.43
2022-11-05T19:57:11.257Z,116.47
2022-11-05T19:59:40.491Z,90.57
2022-11-05T20:02:13.309Z,73.82
2022-11-05T20:04:46.826Z,63.75
2022-11-05T20:07:19.408Z,135.95
2022-11-05T20:09:50.406Z,171.05
2022-11-05T20:12:21.996Z,169.05
2022-11-05T20:14:50.976Z,155.68
2022-11-05T20:17:23.643Z,149.88
2022-11-05T20:19:52.842Z,128.15
2022-11-05T20:22:36.495Z,109.40
2022-11-05T20:25:09.172Z,71.18
2022-11-05T20:27:38.571Z,53.08
2022-11-05T20:32:38.238Z,42.65
2022-11-05T20:35:11.142Z,33.58
2022-11-05T20:37:40.627Z,37.38
2022-11-05T20:42:42.857Z,27.48
2022-11-05T20:45:14.462Z,29.80
2022-11-05T20:47:43.629Z,31.05
2022-11-05T20:50:12.218Z,30.20
2022-11-05T20:52:41.405Z,25.50
2022-11-05T20:55:12.041Z,33.78
2022-11-05T20:57:41.339Z,31.00
2022-11-05T21:00:11.594Z,23.17
2022-11-05T21:02:41.967Z,28.85
2022-11-05T21:05:10.818Z,28.13
2022-11-05T21:07:39.413Z,33.13
2022-11-05T21:10:12.406Z,30.52
2022-11-05T21:12:42.673Z,33.15
2022-11-05T21:15:12.578Z,33.40
2022-11-05T21:17:40.980Z,37.75
2022-11-05T21:20:10.145Z,33.67
2022-11-05T21:22:38.444Z,40.45
2022-11-05T21:25:08.735Z,33.58
2022-11-05T21:27:43.458Z,31.35
2022-11-05T21:30:13.924Z,36.25
2022-11-05T21:32:42.762Z,35.28
2022-11-05T21:35:11.520Z,33.95
2022-11-05T21:37:40.739Z,30.73
2022-11-05T21:40:10.480Z,39.85
2022-11-05T21:45:10.413Z,36.95
2022-11-05T21:47:39.090Z,48.35
2022-11-05T21:50:11.830Z,41.08
2022-11-05T21:52:57.419Z,39.47
2022-11-05T21:55:44.458Z,36.67
2022-11-05T21:58:37.421Z,42.60
2022-11-05T22:01:06.418Z,35.42
2022-11-05T22:03:34.531Z,37.95
2022-11-05T22:06:08.036Z,45.30
2022-11-05T22:08:36.380Z,58.70
2022-11-05T22:11:06.075Z,51.65
2022-11-05T22:13:35.709Z,59.58
2022-11-05T22:18:34.744Z,46.72
2022-11-05T22:21:04.783Z,50.70
2022-11-05T22:23:33.117Z,42.88
2022-11-05T22:26:07.304Z,45.83
2022-11-05T22:28:37.052Z,42.53
2022-11-05T22:33:34.149Z,42.97
2022-11-05T22:36:04.498Z,44.35
2022-11-05T22:38:32.794Z,32.40
2022-11-05T22:41:04.420Z,27.38
2022-11-05T22:43:34.500Z,26.65
2022-11-05T22:46:06.830Z,28.08
2022-11-05T22:48:37.458Z,27.00
2022-11-05T22:51:06.402Z,31.95
2022-11-05T22:53:36.377Z,27.30
2022-11-05T22:56:04.977Z,27.80
2022-11-05T22:58:33.472Z,22.50
2022-11-05T23:01:02.567Z,26.60
2022-11-05T23:03:33.443Z,25.13
2022-11-05T23:06:05.602Z,31.35
2022-11-05T23:08:51.481Z,27.15
2022-11-05T23:11:40.414Z,27.58
2022-11-05T23:14:11.545Z,28.45
2022-11-05T23:16:58.040Z,26.23
2022-11-05T23:19:51.178Z,23.95
2022-11-05T23:22:40.138Z,20.20
2022-11-05T23:25:12.049Z,23.65
2022-11-05T23:27:41.562Z,27.65
2022-11-05T23:30:12.976Z,22.38
2022-11-05T23:32:41.235Z,23.77
2022-11-05T23:35:11.413Z,29.23
2022-11-05T23:37:56.929Z,26.58
2022-11-05T23:40:27.414Z,25.42
2022-11-05T23:43:13.505Z,28.70
2022-11-05T23:46:01.347Z,22.35
2022-11-05T23:48:34.979Z,21.83
2022-11-05T23:51:06.868Z,24.10
2022-11-05T23:53:37.400Z,23.13
2022-11-05T23:56:07.060Z,20.80
2022-11-05T23:58:36.308Z,23.40
